createdAt,value
2018-02-16T15:29:04.050Z,30720.00
2018-02-16T15:30:04.041Z,29632.00
2018-02-16T15:32:58.174Z,28224.00
2018-02-16T15:34:51.312Z,26016.00
2018-02-16T15:35:51.340Z,25856.00
2018-02-16T15:37:44.381Z,24032.00
2018-02-16T15:38:44.374Z,19968.00
2018-02-16T15:40:37.446Z,18656.00
2018-02-16T15:41:37.487Z,18560.00
2018-02-16T15:44:30.521Z,18560.00
2018-02-16T15:47:23.600Z,17312.00
2018-02-16T15:49:17.661Z,16960.00
2018-02-16T15:50:17.654Z,16704.00
2018-02-16T15:53:10.826Z,14784.00
2018-02-16T15:55:04.863Z,13824.00
2018-02-16T15:56:04.848Z,13248.00
2018-02-16T16:00:51.392Z,7592.00
2018-02-16T16:01:51.112Z,5820.00
2018-02-16T16:03:44.138Z,4508.00
2018-02-16T16:04:44.150Z,3084.00
2018-02-16T16:07:37.197Z,3236.00
2018-02-16T16:08:37.213Z,3964.00
2018-02-16T16:09:37.221Z,5160.00
2018-02-16T16:10:38.048Z,4508.00
2018-02-16T16:11:37.267Z,3460.00
2018-02-16T16:12:37.282Z,3512.00
2018-02-16T16:13:37.274Z,2676.00
2018-02-16T16:14:37.298Z,2412.00
2018-02-16T16:15:37.301Z,2780.00
2018-02-16T16:16:37.335Z,2948.00
2018-02-16T16:17:37.320Z,3012.00
2018-02-16T16:18:37.377Z,2908.00
2018-02-16T16:19:37.345Z,2800.00
2018-02-16T16:20:37.351Z,2816.00
2018-02-16T16:21:37.377Z,2588.00
2018-02-16T16:22:37.378Z,2256.00
2018-02-16T16:23:37.392Z,1572.00
2018-02-16T16:24:37.459Z,1440.00
2018-02-16T16:25:37.409Z,1336.00
2018-02-16T16:26:37.438Z,1284.00
2018-02-16T16:27:37.469Z,1304.00
2018-02-16T16:28:37.441Z,1240.00
2018-02-16T16:29:37.446Z,1084.00
2018-02-16T16:30:37.474Z,992.00
2018-02-16T16:31:37.470Z,928.00
2018-02-16T16:32:37.484Z,864.00
2018-02-16T16:33:38.052Z,812.00
2018-02-16T16:34:37.505Z,756.00
2018-02-16T16:35:37.508Z,700.00
2018-02-16T16:36:37.530Z,648.00
2018-02-16T16:37:37.531Z,596.00
2018-02-16T16:38:37.547Z,556.00
2018-02-16T16:39:37.568Z,508.00
2018-02-16T16:40:37.577Z,460.00
2018-02-16T16:41:37.577Z,424.00
2018-02-16T16:42:37.590Z,384.00
2018-02-16T16:43:37.654Z,352.00
2018-02-16T16:44:37.632Z,320.00
2018-02-16T16:45:37.617Z,288.00
2018-02-16T16:46:37.622Z,260.00
2018-02-16T16:47:37.653Z,232.00
2018-02-16T16:48:37.648Z,208.00
2018-02-16T16:49:37.660Z,188.00
2018-02-16T16:50:37.680Z,164.00
2018-02-16T16:51:37.674Z,144.00
2018-02-16T16:52:37.674Z,124.00
2018-02-16T16:53:37.691Z,108.00
2018-02-16T16:54:37.725Z,100.00
2018-02-16T16:55:37.732Z,84.00
2018-02-16T16:56:37.712Z,72.00
2018-02-16T16:57:37.715Z,64.00
2018-02-16T16:58:38.559Z,56.00
2018-02-16T16:59:37.746Z,52.00
2018-02-16T17:00:37.750Z,44.00
2018-02-16T17:01:37.773Z,36.00
2018-02-16T17:02:37.800Z,32.00
2018-02-16T17:03:37.796Z,28.00
2018-02-16T17:04:37.797Z,24.00
2018-02-16T17:05:37.803Z,20.00
2018-02-16T17:06:37.815Z,20.00
2018-02-16T17:07:37.821Z,16.00
2018-02-16T17:08:37.826Z,12.00
2018-02-16T17:09:37.835Z,8.00
2018-02-16T17:10:37.848Z,8.00
2018-02-16T17:11:37.855Z,8.00
2018-02-16T17:12:37.867Z,8.00
2018-02-16T17:13:37.872Z,8.00
2018-02-16T17:14:37.881Z,4.00
2018-02-16T17:15:37.898Z,4.00
2018-02-16T17:16:37.892Z,4.00
2018-02-16T17:17:37.914Z,4.00
2018-02-16T17:18:37.908Z,4.00
2018-02-16T17:19:37.916Z,4.00
2018-02-16T17:20:37.932Z,4.00
2018-02-16T17:21:38.014Z,4.00
2018-02-16T17:22:37.942Z,4.00
2018-02-16T17:23:37.946Z,0.00
2018-02-16T17:24:37.964Z,4.00
2018-02-16T17:25:38.018Z,4.00
2018-02-16T17:26:37.972Z,0.00
2018-02-16T17:27:38.009Z,0.00
2018-02-16T17:28:37.992Z,4.00
2018-02-16T17:29:38.023Z,0.00
2018-02-16T17:30:38.023Z,4.00
2018-02-16T17:31:38.079Z,0.00
2018-02-16T17:32:38.032Z,0.00
2018-02-16T17:33:38.032Z,4.00
2018-02-16T17:34:38.040Z,4.00
2018-02-16T17:35:38.064Z,0.00
2018-02-16T17:36:38.099Z,0.00
2018-02-16T17:37:38.071Z,0.00
2018-02-16T17:38:38.070Z,0.00
2018-02-16T17:39:38.099Z,4.00
2018-02-16T17:40:38.088Z,0.00
2018-02-16T17:41:38.116Z,4.00
2018-02-16T17:42:38.115Z,0.00
2018-02-16T17:43:38.134Z,0.00
2018-02-16T17:44:38.126Z,0.00
2018-02-16T17:45:38.145Z,4.00
2018-02-16T17:46:38.137Z,0.00
2018-02-16T17:47:38.155Z,4.00
2018-02-16T17:48:38.200Z,4.00
2018-02-16T17:49:38.159Z,4.00
2018-02-16T17:50:38.175Z,0.00
2018-02-16T17:51:38.194Z,0.00
2018-02-16T17:52:38.197Z,0.00
2018-02-16T17:53:38.197Z,4.00
2018-02-16T17:54:38.207Z,0.00
2018-02-16T17:55:38.216Z,4.00
2018-02-16T17:56:38.213Z,0.00
2018-02-16T17:57:38.232Z,4.00
2018-02-16T17:58:38.236Z,4.00
2018-02-16T17:59:38.269Z,0.00
2018-02-16T18:00:38.270Z,4.00
2018-02-16T18:01:38.261Z,0.00
2018-02-16T18:02:38.277Z,4.00
2018-02-16T18:03:38.277Z,0.00
2018-02-16T18:04:38.292Z,0.00
2018-02-16T18:05:38.306Z,0.00
2018-02-16T18:06:38.294Z,0.00
2018-02-16T18:07:38.312Z,0.00
2018-02-16T18:08:38.318Z,4.00
2018-02-16T18:09:38.322Z,0.00
2018-02-16T18:10:38.360Z,4.00
2018-02-16T18:11:38.342Z,4.00
2018-02-16T18:12:38.344Z,0.00
2018-02-16T18:13:38.343Z,0.00
2018-02-16T18:14:38.362Z,0.00
2018-02-16T18:15:38.375Z,0.00
2018-02-16T18:16:38.381Z,0.00
2018-02-16T18:17:38.405Z,0.00
2018-02-16T18:18:38.388Z,4.00
2018-02-16T18:19:38.393Z,0.00
2018-02-16T18:20:38.411Z,4.00
2018-02-16T18:21:38.416Z,0.00
2018-02-16T18:22:38.496Z,0.00
2018-02-16T18:23:38.434Z,0.00
2018-02-16T18:24:38.444Z,0.00
2018-02-16T18:25:38.439Z,0.00
2018-02-16T18:26:38.466Z,0.00
2018-02-16T18:27:38.471Z,0.00
2018-02-16T18:28:38.465Z,0.00
2018-02-16T18:29:38.469Z,4.00
2018-02-16T18:30:38.465Z,4.00
2018-02-16T18:31:38.498Z,0.00
2018-02-16T18:32:38.527Z,0.00
2018-02-16T18:33:38.520Z,0.00
2018-02-16T18:34:38.517Z,0.00
2018-02-16T18:35:38.529Z,4.00
2018-02-16T18:36:38.535Z,0.00
2018-02-16T18:37:38.559Z,0.00
2018-02-16T18:38:38.552Z,0.00
2018-02-16T18:39:38.549Z,0.00
2018-02-16T18:40:38.560Z,0.00
2018-02-16T18:41:38.569Z,0.00
2018-02-16T18:42:38.582Z,4.00
2018-02-16T18:43:38.584Z,0.00
2018-02-16T18:44:38.563Z,0.00
2018-02-16T18:45:38.596Z,0.00
2018-02-16T18:46:38.631Z,0.00
2018-02-16T18:47:38.613Z,0.00
2018-02-16T18:48:38.612Z,0.00
2018-02-16T18:49:38.614Z,0.00
2018-02-16T18:50:38.675Z,0.00
2018-02-16T18:51:38.656Z,4.00
2018-02-16T18:52:38.664Z,4.00
2018-02-16T18:53:38.635Z,4.00
2018-02-16T18:54:38.654Z,0.00
2018-02-16T18:55:38.663Z,0.00
2018-02-16T18:56:38.676Z,0.00
2018-02-16T18:57:38.702Z,0.00
2018-02-16T18:58:38.700Z,0.00
2018-02-16T18:59:38.691Z,0.00
2018-02-16T19:00:38.696Z,0.00
2018-02-16T19:01:38.705Z,0.00
2018-02-16T19:02:38.702Z,0.00
2018-02-16T19:03:38.707Z,4.00
2018-02-16T19:04:38.723Z,0.00
2018-02-16T19:05:38.732Z,4.00
2018-02-16T19:06:38.942Z,0.00
2018-02-16T19:07:38.743Z,4.00
2018-02-16T19:08:38.750Z,0.00
2018-02-16T19:09:38.750Z,0.00
2018-02-16T19:10:38.755Z,4.00
2018-02-16T19:11:38.771Z,0.00
2018-02-16T19:12:39.052Z,0.00
2018-02-16T19:13:38.779Z,4.00
2018-02-16T19:14:38.783Z,0.00
2018-02-16T19:15:38.838Z,4.00
2018-02-16T19:16:38.846Z,0.00
2018-02-16T19:17:38.823Z,0.00
2018-02-16T19:18:38.818Z,0.00
2018-02-16T19:19:38.875Z,0.00
2018-02-16T19:20:38.819Z,0.00
2018-02-16T19:21:39.312Z,0.00
2018-02-16T19:22:38.832Z,0.00
2018-02-16T19:23:38.915Z,0.00
2018-02-16T19:24:38.858Z,0.00
2018-02-16T19:25:38.880Z,0.00
2018-02-16T19:26:39.014Z,0.00
2018-02-16T19:27:38.883Z,0.00
2018-02-16T19:28:38.892Z,0.00
2018-02-16T19:29:38.902Z,0.00
2018-02-16T19:30:38.948Z,0.00
2018-02-16T19:31:38.926Z,0.00
2018-02-16T19:32:39.241Z,0.00
2018-02-16T19:33:38.949Z,0.00
2018-02-16T19:34:38.940Z,0.00
2018-02-16T19:35:38.999Z,0.00
2018-02-16T19:36:38.964Z,0.00
2018-02-16T19:37:38.944Z,0.00
2018-02-16T19:38:38.938Z,0.00
2018-02-16T19:39:38.954Z,0.00
2018-02-16T19:40:38.961Z,4.00
2018-02-16T19:41:38.984Z,0.00
2018-02-16T19:42:38.969Z,0.00
2018-02-16T19:43:38.983Z,4.00
2018-02-16T19:44:39.000Z,0.00
2018-02-16T19:45:38.992Z,4.00
2018-02-16T19:46:39.058Z,0.00
2018-02-16T19:47:39.029Z,0.00
2018-02-16T19:48:39.007Z,0.00
2018-02-16T19:49:39.008Z,0.00
2018-02-16T19:50:39.139Z,4.00
2018-02-16T19:51:39.139Z,0.00
2018-02-16T19:52:39.277Z,0.00
2018-02-16T19:53:39.027Z,0.00
2018-02-16T19:54:39.049Z,4.00
2018-02-16T19:55:39.064Z,0.00
2018-02-16T19:56:39.244Z,0.00
2018-02-16T19:57:39.189Z,0.00
2018-02-16T19:58:39.078Z,0.00
2018-02-16T19:59:39.154Z,0.00
2018-02-16T20:00:39.077Z,0.00
2018-02-16T20:01:39.105Z,0.00
2018-02-16T20:02:39.086Z,0.00
2018-02-16T20:03:39.114Z,0.00
2018-02-16T20:04:39.239Z,0.00
2018-02-16T20:05:39.112Z,0.00
2018-02-16T20:06:39.116Z,0.00
2018-02-16T20:07:39.123Z,0.00
2018-02-16T20:08:39.128Z,0.00
2018-02-16T20:09:39.132Z,0.00
2018-02-16T20:10:39.151Z,0.00
2018-02-16T20:11:39.164Z,0.00
2018-02-16T20:12:39.162Z,0.00
2018-02-16T20:13:39.157Z,0.00
2018-02-16T20:14:39.179Z,0.00
2018-02-16T20:15:39.174Z,4.00
2018-02-16T20:16:39.171Z,0.00
2018-02-16T20:17:39.186Z,0.00
2018-02-16T20:18:39.254Z,0.00
2018-02-16T20:19:39.275Z,0.00
2018-02-16T20:20:39.206Z,0.00
2018-02-16T20:21:39.205Z,0.00
2018-02-16T20:22:39.216Z,0.00
2018-02-16T20:23:39.218Z,0.00
2018-02-16T20:24:39.238Z,0.00
2018-02-16T20:25:39.230Z,0.00
2018-02-16T20:26:39.235Z,0.00
2018-02-16T20:27:39.247Z,0.00
2018-02-16T20:28:39.259Z,0.00
2018-02-16T20:29:39.258Z,0.00
2018-02-16T20:31:39.276Z,0.00
2018-02-16T20:32:39.283Z,4.00
2018-02-16T20:33:39.290Z,0.00
2018-02-16T20:35:39.296Z,0.00
2018-02-16T20:36:39.293Z,0.00
2018-02-16T20:37:39.308Z,0.00
2018-02-16T20:38:39.323Z,0.00
2018-02-16T20:39:39.325Z,0.00
2018-02-16T20:40:39.351Z,0.00
2018-02-16T20:42:55.592Z,0.00
2018-02-16T21:00:42.793Z,0.00
2018-02-16T21:01:42.837Z,0.00
2018-02-16T21:02:42.853Z,0.00
2018-02-16T21:03:42.814Z,0.00
2018-02-16T21:04:42.817Z,0.00
2018-02-16T21:05:42.844Z,0.00
2018-02-16T21:06:42.831Z,0.00
2018-02-16T21:07:42.835Z,0.00
2018-02-16T21:08:42.844Z,0.00
2018-02-16T21:09:42.889Z,0.00
2018-02-16T21:10:42.866Z,0.00
2018-02-16T21:11:42.905Z,0.00
2018-02-16T21:12:42.877Z,0.00
2018-02-16T21:13:42.861Z,0.00
2018-02-16T21:14:42.885Z,0.00
2018-02-16T21:15:42.877Z,0.00
2018-02-16T21:16:42.898Z,0.00
2018-02-16T21:17:42.908Z,0.00
2018-02-16T21:18:42.944Z,0.00
2018-02-16T21:19:43.152Z,0.00
2018-02-16T21:20:42.911Z,0.00
2018-02-16T21:21:42.924Z,0.00
2018-02-16T21:22:42.922Z,0.00
2018-02-16T21:23:42.929Z,0.00
2018-02-16T21:24:42.942Z,0.00
2018-02-16T21:25:42.939Z,0.00
2018-02-16T21:26:42.947Z,0.00
2018-02-16T21:27:42.953Z,0.00
2018-02-16T21:28:42.953Z,0.00
2018-02-16T21:29:42.976Z,0.00
2018-02-16T21:30:42.975Z,0.00
2018-02-16T21:31:42.970Z,0.00
2018-02-16T21:32:42.975Z,0.00
2018-02-16T21:33:43.001Z,0.00
2018-02-16T21:34:43.001Z,0.00
2018-02-16T21:35:43.001Z,0.00
2018-02-16T21:36:43.004Z,0.00
2018-02-16T21:37:43.010Z,0.00
2018-02-16T21:38:43.025Z,0.00
2018-02-16T21:39:43.020Z,0.00
2018-02-16T21:40:43.040Z,0.00
2018-02-16T21:41:43.038Z,0.00
2018-02-16T21:42:43.054Z,0.00
2018-02-16T21:43:43.063Z,0.00
2018-02-16T21:44:43.068Z,0.00
2018-02-16T21:45:43.062Z,0.00
2018-02-16T21:46:43.078Z,0.00
2018-02-16T21:47:43.074Z,0.00
2018-02-16T21:48:43.079Z,0.00
2018-02-16T21:49:43.084Z,0.00
2018-02-16T21:50:43.083Z,0.00
2018-02-16T21:51:43.090Z,0.00
2018-02-16T21:52:43.102Z,0.00
2018-02-16T21:53:43.126Z,0.00
2018-02-16T21:54:43.121Z,0.00
2018-02-16T21:55:43.123Z,0.00
2018-02-16T21:56:43.121Z,0.00
2018-02-16T21:57:43.121Z,0.00
2018-02-16T21:58:43.132Z,0.00
2018-02-16T21:59:43.173Z,0.00
2018-02-16T22:00:43.144Z,0.00
2018-02-16T22:01:43.151Z,0.00
2018-02-16T22:02:43.155Z,0.00
2018-02-16T22:03:43.161Z,0.00
2018-02-16T22:04:43.164Z,0.00
2018-02-16T22:05:43.166Z,0.00
2018-02-16T22:06:43.185Z,0.00
2018-02-16T22:07:43.177Z,0.00
2018-02-16T22:08:43.203Z,0.00
2018-02-16T22:09:43.214Z,0.00
2018-02-16T22:10:43.311Z,0.00
2018-02-16T22:11:43.206Z,0.00
2018-02-16T22:12:43.220Z,0.00
2018-02-16T22:13:43.233Z,0.00
2018-02-16T22:14:43.238Z,0.00
2018-02-16T22:15:43.228Z,0.00
2018-02-16T22:16:43.241Z,0.00
2018-02-16T22:17:43.253Z,0.00
2018-02-16T22:18:43.254Z,0.00
2018-02-16T22:19:43.253Z,0.00
2018-02-16T22:20:43.269Z,0.00
2018-02-16T22:21:43.256Z,0.00
2018-02-16T22:22:43.282Z,0.00
2018-02-16T22:23:43.310Z,0.00
2018-02-16T22:24:43.321Z,0.00
2018-02-16T22:25:43.279Z,0.00
2018-02-16T22:26:43.298Z,0.00
2018-02-16T22:27:43.290Z,0.00
2018-02-16T22:28:43.327Z,0.00
2018-02-16T22:29:43.301Z,0.00
2018-02-16T22:30:43.329Z,0.00
2018-02-16T22:31:43.345Z,0.00
2018-02-16T22:32:43.344Z,0.00
2018-02-16T22:33:43.356Z,0.00
2018-02-16T22:34:43.339Z,0.00
2018-02-16T22:35:43.346Z,0.00
2018-02-16T22:36:43.382Z,0.00
2018-02-16T22:37:43.356Z,0.00
2018-02-16T22:38:43.356Z,0.00
2018-02-16T22:39:43.366Z,0.00
2018-02-16T22:40:43.368Z,0.00
2018-02-16T22:41:43.383Z,0.00
2018-02-16T22:42:43.384Z,0.00
2018-02-16T22:43:43.389Z,0.00
2018-02-16T22:44:43.392Z,0.00
2018-02-16T22:45:43.406Z,0.00
2018-02-16T22:46:43.398Z,0.00
2018-02-16T22:47:43.399Z,0.00
2018-02-16T22:48:43.412Z,0.00
2018-02-16T22:49:43.417Z,0.00
2018-02-16T22:50:43.415Z,0.00
2018-02-16T22:51:43.461Z,0.00
2018-02-16T22:52:43.426Z,0.00
2018-02-16T22:53:43.435Z,0.00
2018-02-16T22:54:43.441Z,0.00
2018-02-16T22:55:43.446Z,0.00
2018-02-16T22:56:43.499Z,0.00
2018-02-16T22:57:43.459Z,0.00
2018-02-16T22:58:43.461Z,0.00
2018-02-16T22:59:43.467Z,0.00
2018-02-16T23:00:43.476Z,0.00
2018-02-16T23:01:43.552Z,0.00
2018-02-16T23:02:43.483Z,0.00
2018-02-16T23:03:43.493Z,0.00
2018-02-16T23:04:43.504Z,0.00
2018-02-16T23:05:43.527Z,0.00
2018-02-16T23:06:43.517Z,0.00
2018-02-16T23:07:43.522Z,0.00
2018-02-16T23:08:43.547Z,0.00
2018-02-16T23:09:43.525Z,0.00
2018-02-16T23:10:43.544Z,0.00
2018-02-16T23:11:43.545Z,0.00
2018-02-16T23:12:43.545Z,0.00
2018-02-16T23:13:43.564Z,0.00
2018-02-16T23:14:43.570Z,0.00
2018-02-16T23:15:43.586Z,0.00
2018-02-16T23:16:43.590Z,0.00
2018-02-16T23:17:44.083Z,0.00
2018-02-16T23:18:43.571Z,0.00
2018-02-16T23:19:43.601Z,0.00
2018-02-16T23:20:43.585Z,0.00
2018-02-16T23:21:43.600Z,0.00
2018-02-16T23:22:43.590Z,0.00
2018-02-16T23:23:43.594Z,0.00
2018-02-16T23:24:43.600Z,0.00
2018-02-16T23:25:43.628Z,0.00
2018-02-16T23:26:43.610Z,0.00
2018-02-16T23:27:43.648Z,0.00
2018-02-16T23:28:43.644Z,0.00
2018-02-16T23:29:43.615Z,0.00
2018-02-16T23:30:43.639Z,0.00
2018-02-16T23:31:43.684Z,0.00
2018-02-16T23:32:43.645Z,0.00
2018-02-16T23:33:43.647Z,0.00
2018-02-16T23:34:43.683Z,0.00
2018-02-16T23:35:43.693Z,0.00
2018-02-16T23:36:43.695Z,0.00
2018-02-16T23:37:43.670Z,0.00
2018-02-16T23:38:43.681Z,0.00
2018-02-16T23:39:43.690Z,0.00
2018-02-16T23:40:43.697Z,0.00
2018-02-16T23:41:43.792Z,0.00
2018-02-16T23:42:43.674Z,0.00
2018-02-16T23:43:43.660Z,0.00
2018-02-16T23:44:43.732Z,0.00
2018-02-16T23:45:43.753Z,0.00
2018-02-16T23:46:43.668Z,0.00
2018-02-16T23:47:43.712Z,0.00
2018-02-16T23:48:43.685Z,0.00
2018-02-16T23:49:43.681Z,0.00
2018-02-16T23:50:43.695Z,0.00
2018-02-16T23:51:43.765Z,0.00
2018-02-16T23:52:43.703Z,0.00
2018-02-16T23:53:43.702Z,0.00
2018-02-16T23:54:43.768Z,0.00
2018-02-16T23:55:43.734Z,0.00
2018-02-16T23:56:45.063Z,0.00
2018-02-16T23:57:43.799Z,0.00
2018-02-16T23:58:43.809Z,0.00
2018-02-16T23:59:43.749Z,0.00
